createdAt,value
2017-12-20T00:00:24.467Z,6.38
2017-12-20T00:01:24.476Z,6.33
2017-12-20T00:02:24.453Z,6.38
2017-12-20T00:03:24.448Z,6.35
2017-12-20T00:04:24.481Z,6.35
2017-12-20T00:05:24.443Z,6.38
2017-12-20T00:06:24.442Z,6.35
2017-12-20T00:07:24.426Z,6.42
2017-12-20T00:08:24.419Z,6.46
2017-12-20T00:09:24.415Z,6.38
2017-12-20T00:10:24.408Z,6.38
2017-12-20T00:11:24.404Z,6.41
2017-12-20T00:12:24.415Z,6.52
2017-12-20T00:13:24.391Z,6.49
2017-12-20T00:14:24.387Z,6.48
2017-12-20T00:15:24.380Z,6.51
2017-12-20T00:16:24.374Z,6.63
2017-12-20T00:17:24.369Z,6.60
2017-12-20T00:18:24.362Z,6.59
2017-12-20T00:19:24.355Z,6.66
2017-12-20T00:20:24.355Z,6.54
2017-12-20T00:21:24.344Z,6.69
2017-12-20T00:22:24.339Z,6.59
2017-12-20T00:23:24.333Z,6.59
2017-12-20T00:24:24.328Z,6.57
2017-12-20T00:25:24.366Z,6.59
2017-12-20T00:26:24.315Z,6.51
2017-12-20T00:27:24.310Z,6.57
2017-12-20T00:28:24.306Z,6.57
2017-12-20T00:29:24.302Z,6.54
2017-12-20T00:30:24.295Z,6.56
2017-12-20T00:31:24.293Z,6.54
2017-12-20T00:32:24.284Z,6.51
2017-12-20T00:33:24.279Z,6.51
2017-12-20T00:34:24.273Z,6.45
2017-12-20T00:35:24.265Z,6.48
2017-12-20T00:36:24.280Z,6.42
2017-12-20T00:37:24.254Z,6.39
2017-12-20T00:38:24.250Z,6.46
2017-12-20T00:39:24.244Z,6.31
2017-12-20T00:40:24.238Z,6.39
2017-12-20T00:41:24.232Z,6.38
2017-12-20T00:42:24.229Z,6.35
2017-12-20T00:43:24.225Z,6.38
2017-12-20T00:44:24.216Z,6.39
2017-12-20T00:45:24.209Z,6.38
2017-12-20T00:46:24.209Z,6.35
2017-12-20T00:47:24.196Z,6.30
2017-12-20T00:48:24.192Z,6.35
2017-12-20T00:49:24.187Z,6.35
2017-12-20T00:50:24.180Z,6.39
2017-12-20T00:51:24.179Z,6.31
2017-12-20T00:52:24.170Z,6.31
2017-12-20T00:53:24.162Z,6.35
2017-12-20T00:54:24.157Z,6.31
2017-12-20T00:55:24.158Z,6.35
2017-12-20T00:56:24.145Z,6.28
2017-12-20T00:57:24.138Z,6.30
2017-12-20T00:58:24.132Z,6.35
2017-12-20T00:59:24.130Z,6.35
2017-12-20T01:00:24.126Z,6.27
2017-12-20T01:01:24.123Z,6.26
2017-12-20T01:02:24.111Z,6.36
2017-12-20T01:03:24.105Z,6.31
2017-12-20T01:04:24.100Z,6.39
2017-12-20T01:05:24.094Z,6.38
2017-12-20T01:06:24.087Z,6.45
2017-12-20T01:07:24.079Z,6.45
2017-12-20T01:08:24.073Z,6.42
2017-12-20T01:09:24.072Z,6.46
2017-12-20T01:10:24.063Z,6.51
2017-12-20T01:11:24.094Z,6.52
2017-12-20T01:12:24.070Z,6.49
2017-12-20T01:13:24.046Z,6.46
2017-12-20T01:14:24.039Z,6.49
2017-12-20T01:15:24.059Z,6.56
2017-12-20T01:16:24.030Z,6.49
2017-12-20T01:17:24.025Z,6.41
2017-12-20T01:18:24.017Z,6.48
2017-12-20T01:19:24.020Z,6.42
2017-12-20T01:20:24.010Z,6.44
2017-12-20T01:21:24.005Z,6.49
2017-12-20T01:22:23.994Z,6.44
2017-12-20T01:23:23.988Z,6.38
2017-12-20T01:24:23.982Z,6.39
2017-12-20T01:25:23.978Z,6.36
2017-12-20T01:26:23.972Z,6.42
2017-12-20T01:27:23.965Z,6.35
2017-12-20T01:28:24.646Z,6.44
2017-12-20T01:29:23.952Z,6.41
2017-12-20T01:30:23.947Z,6.31
2017-12-20T01:31:23.943Z,6.39
2017-12-20T01:32:23.937Z,6.31
2017-12-20T01:33:23.929Z,6.35
2017-12-20T01:34:23.923Z,6.31
2017-12-20T01:35:23.917Z,6.35
2017-12-20T01:36:23.916Z,6.33
2017-12-20T01:37:23.908Z,6.31
2017-12-20T01:38:23.903Z,6.38
2017-12-20T01:39:23.895Z,6.33
2017-12-20T01:40:23.892Z,6.30
2017-12-20T01:41:23.883Z,6.35
2017-12-20T01:42:23.876Z,6.38
2017-12-20T01:43:23.874Z,6.39
2017-12-20T01:44:23.868Z,6.33
2017-12-20T01:45:23.864Z,6.28
2017-12-20T01:46:23.855Z,6.27
2017-12-20T01:47:23.855Z,6.30
2017-12-20T01:48:23.844Z,6.35
2017-12-20T01:49:23.839Z,6.28
2017-12-20T01:50:23.831Z,6.35
2017-12-20T01:51:23.834Z,6.31
2017-12-20T01:52:23.820Z,6.33
2017-12-20T01:53:23.815Z,6.39
2017-12-20T01:54:23.808Z,6.38
2017-12-20T01:55:23.803Z,6.49
2017-12-20T01:56:23.797Z,6.42
2017-12-20T01:57:23.791Z,6.44
2017-12-20T01:58:23.785Z,6.46
2017-12-20T01:59:23.779Z,6.35
2017-12-20T02:00:23.774Z,6.39
2017-12-20T02:01:23.773Z,6.30
2017-12-20T02:02:23.764Z,6.35
2017-12-20T02:03:23.756Z,6.35
2017-12-20T02:04:23.755Z,6.35
2017-12-20T02:05:23.744Z,6.30
2017-12-20T02:06:23.737Z,6.41
2017-12-20T02:07:23.734Z,6.31
2017-12-20T02:08:23.726Z,6.36
2017-12-20T02:09:23.719Z,6.36
2017-12-20T02:10:23.716Z,6.31
2017-12-20T02:11:23.710Z,6.35
2017-12-20T02:12:23.708Z,6.36
2017-12-20T02:13:23.702Z,6.31
2017-12-20T02:14:23.693Z,6.36
2017-12-20T02:15:23.684Z,6.38
2017-12-20T02:16:23.680Z,6.33
2017-12-20T02:17:23.672Z,6.33
2017-12-20T02:18:23.669Z,6.41
2017-12-20T02:19:23.663Z,6.38
2017-12-20T02:20:23.656Z,6.39
2017-12-20T02:21:23.650Z,6.31
2017-12-20T02:22:23.643Z,6.28
2017-12-20T02:23:23.638Z,6.33
2017-12-20T02:24:23.633Z,6.31
2017-12-20T02:25:23.628Z,6.31
2017-12-20T02:26:23.619Z,6.31
2017-12-20T02:27:23.616Z,6.35
2017-12-20T02:28:23.610Z,6.35
2017-12-20T02:29:23.603Z,6.36
2017-12-20T02:30:23.600Z,6.31
2017-12-20T02:31:23.591Z,6.35
2017-12-20T02:32:25.580Z,6.26
2017-12-20T02:33:23.580Z,6.17
2017-12-20T02:34:23.572Z,6.19
2017-12-20T02:35:23.566Z,6.14
2017-12-20T02:36:23.563Z,6.28
2017-12-20T02:37:23.556Z,6.28
2017-12-20T02:38:23.551Z,6.22
2017-12-20T02:39:23.542Z,6.22
2017-12-20T02:40:23.540Z,6.28
2017-12-20T02:41:23.536Z,6.16
2017-12-20T02:42:23.528Z,6.22
2017-12-20T02:43:23.520Z,6.22
2017-12-20T02:44:23.514Z,6.22
2017-12-20T02:45:23.508Z,6.24
2017-12-20T02:46:23.503Z,6.30
2017-12-20T02:47:23.494Z,6.30
2017-12-20T02:48:23.491Z,6.27
2017-12-20T02:49:23.483Z,6.31
2017-12-20T02:50:23.479Z,6.33
2017-12-20T02:51:23.475Z,6.31
2017-12-20T02:52:23.467Z,6.33
2017-12-20T02:53:23.462Z,6.31
2017-12-20T02:54:23.455Z,6.28
2017-12-20T02:55:23.449Z,6.41
2017-12-20T02:56:23.447Z,6.39
2017-12-20T02:57:23.437Z,6.41
2017-12-20T02:58:23.430Z,6.38
2017-12-20T02:59:23.425Z,6.30
2017-12-20T03:00:25.028Z,6.39
2017-12-20T03:01:25.273Z,6.35
2017-12-20T03:02:23.406Z,6.38
2017-12-20T03:03:23.401Z,6.36
2017-12-20T03:04:23.395Z,6.38
2017-12-20T03:05:23.391Z,6.41
2017-12-20T03:06:23.384Z,6.33
2017-12-20T03:07:23.380Z,6.42
2017-12-20T03:08:23.373Z,6.44
2017-12-20T03:09:23.371Z,6.35
2017-12-20T03:10:23.362Z,6.35
2017-12-20T03:11:23.356Z,6.31
2017-12-20T03:12:23.350Z,6.33
2017-12-20T03:13:23.346Z,6.27
2017-12-20T03:14:23.337Z,6.27
2017-12-20T03:15:23.330Z,6.28
2017-12-20T03:16:23.327Z,6.30
2017-12-20T03:17:23.324Z,6.30
2017-12-20T03:18:23.316Z,6.27
2017-12-20T03:19:23.311Z,6.22
2017-12-20T03:20:23.304Z,6.33
2017-12-20T03:21:23.316Z,6.30
2017-12-20T03:22:23.293Z,6.33
2017-12-20T03:23:23.287Z,6.38
2017-12-20T03:24:23.282Z,6.22
2017-12-20T03:25:23.277Z,6.35
2017-12-20T03:26:23.270Z,6.31
2017-12-20T03:27:23.263Z,6.28
2017-12-20T03:28:23.257Z,6.33
2017-12-20T03:29:23.253Z,6.31
2017-12-20T03:30:23.246Z,6.26
2017-12-20T03:31:23.243Z,6.33
2017-12-20T03:32:23.236Z,6.30
2017-12-20T03:33:23.230Z,6.31
2017-12-20T03:34:23.223Z,6.33
2017-12-20T03:35:23.217Z,6.31
2017-12-20T03:36:23.212Z,6.28
2017-12-20T03:37:23.205Z,6.31
2017-12-20T03:38:23.198Z,6.30
2017-12-20T03:39:23.194Z,6.22
2017-12-20T03:40:23.186Z,6.22
2017-12-20T03:41:23.186Z,6.19
2017-12-20T03:42:23.174Z,6.22
2017-12-20T03:43:23.177Z,6.22
2017-12-20T03:44:23.162Z,6.24
2017-12-20T03:45:23.161Z,6.22
2017-12-20T03:46:23.154Z,6.19
2017-12-20T03:47:23.147Z,6.20
2017-12-20T03:48:23.140Z,6.19
2017-12-20T03:49:23.133Z,6.12
2017-12-20T03:50:23.129Z,6.22
2017-12-20T03:51:23.133Z,6.16
2017-12-20T03:52:23.118Z,6.17
2017-12-20T03:53:23.110Z,6.24
2017-12-20T03:54:23.104Z,6.16
2017-12-20T03:55:23.100Z,6.12
2017-12-20T03:56:23.096Z,6.22
2017-12-20T03:57:23.087Z,6.19
2017-12-20T03:58:23.084Z,6.24
2017-12-20T03:59:23.076Z,6.12
2017-12-20T04:00:23.070Z,6.19
2017-12-20T04:01:23.065Z,6.22
2017-12-20T04:02:23.056Z,6.26
2017-12-20T04:03:23.051Z,6.22
2017-12-20T04:04:23.048Z,6.22
2017-12-20T04:05:23.042Z,6.22
2017-12-20T04:06:23.036Z,6.16
2017-12-20T04:07:23.031Z,6.20
2017-12-20T04:08:23.027Z,6.11
2017-12-20T04:09:23.018Z,6.19
2017-12-20T04:10:24.498Z,6.12
2017-12-20T04:11:23.081Z,6.14
2017-12-20T04:12:22.999Z,6.14
2017-12-20T04:13:22.994Z,6.19
2017-12-20T04:14:22.988Z,6.11
2017-12-20T04:15:22.982Z,6.16
2017-12-20T04:16:24.499Z,6.16
2017-12-20T04:17:22.968Z,6.16
2017-12-20T04:18:37.762Z,6.14
2017-12-20T04:19:22.956Z,6.17
2017-12-20T04:20:22.952Z,6.19
2017-12-20T04:21:22.952Z,6.16
2017-12-20T04:22:22.939Z,6.02
2017-12-20T04:23:22.931Z,6.01
2017-12-20T04:24:22.928Z,5.99
2017-12-20T04:25:22.923Z,5.99
2017-12-20T04:26:22.916Z,5.94
2017-12-20T04:27:22.907Z,6.07
2017-12-20T04:28:22.903Z,5.99
2017-12-20T04:29:22.898Z,6.01
2017-12-20T04:30:22.889Z,5.94
2017-12-20T04:31:22.883Z,6.01
2017-12-20T04:32:22.879Z,6.05
2017-12-20T04:33:22.871Z,5.99
2017-12-20T04:34:22.863Z,5.99
2017-12-20T04:35:22.870Z,6.16
2017-12-20T04:36:22.853Z,6.04
2017-12-20T04:37:22.844Z,6.04
2017-12-20T04:38:22.842Z,6.16
2017-12-20T04:39:22.835Z,6.05
2017-12-20T04:40:22.830Z,6.08
2017-12-20T04:41:22.822Z,6.14
2017-12-20T04:42:22.815Z,6.12
2017-12-20T04:43:22.807Z,6.17
2017-12-20T04:44:22.804Z,6.12
2017-12-20T04:45:22.798Z,6.08
2017-12-20T04:46:22.789Z,6.07
2017-12-20T04:47:22.784Z,6.05
2017-12-20T04:48:22.778Z,5.98
2017-12-20T04:49:22.774Z,6.07
2017-12-20T04:50:22.766Z,6.05
2017-12-20T04:51:22.761Z,6.04
2017-12-20T04:52:22.751Z,6.01
2017-12-20T04:53:22.921Z,6.02
2017-12-20T04:54:22.738Z,5.99
2017-12-20T04:55:22.733Z,6.01
2017-12-20T04:56:22.728Z,5.99
2017-12-20T04:57:22.721Z,5.99
2017-12-20T04:58:22.715Z,6.02
2017-12-20T04:59:22.707Z,6.04
2017-12-20T05:00:22.702Z,5.99
2017-12-20T05:01:22.696Z,5.98
2017-12-20T05:02:22.691Z,6.05
2017-12-20T05:03:22.686Z,5.98
2017-12-20T05:04:23.933Z,6.04
2017-12-20T05:05:22.711Z,6.02
2017-12-20T05:06:22.665Z,5.99
2017-12-20T05:07:22.658Z,6.04
2017-12-20T05:08:22.652Z,5.99
2017-12-20T05:09:22.647Z,6.05
2017-12-20T05:10:22.638Z,5.99
2017-12-20T05:11:22.633Z,6.02
2017-12-20T05:12:22.627Z,6.05
2017-12-20T05:13:22.624Z,5.99
2017-12-20T05:14:22.615Z,5.99
2017-12-20T05:15:22.610Z,5.99
2017-12-20T05:16:22.602Z,6.09
2017-12-20T05:17:22.599Z,6.05
2017-12-20T05:18:22.587Z,6.04
2017-12-20T05:19:22.601Z,6.05
2017-12-20T05:20:22.575Z,6.09
2017-12-20T05:21:22.631Z,6.16
2017-12-20T05:22:22.565Z,6.20
2017-12-20T05:23:22.558Z,6.14
2017-12-20T05:24:22.551Z,6.16
2017-12-20T05:25:22.545Z,6.14
2017-12-20T05:26:22.584Z,6.24
2017-12-20T05:27:22.534Z,6.22
2017-12-20T05:28:22.526Z,6.17
2017-12-20T05:29:22.523Z,6.17
2017-12-20T05:30:22.518Z,6.20
2017-12-20T05:31:22.519Z,6.20
2017-12-20T05:32:22.505Z,6.26
2017-12-20T05:33:22.497Z,6.27
2017-12-20T05:34:22.491Z,6.28
2017-12-20T05:35:22.485Z,6.26
2017-12-20T05:36:22.478Z,6.28
2017-12-20T05:37:22.473Z,6.30
2017-12-20T05:38:22.469Z,6.26
2017-12-20T05:39:22.459Z,6.30
2017-12-20T05:40:22.473Z,6.30
2017-12-20T05:41:22.453Z,6.27
2017-12-20T05:42:22.442Z,6.27
2017-12-20T05:43:22.438Z,6.26
2017-12-20T05:44:22.431Z,6.27
2017-12-20T05:45:22.428Z,6.31
2017-12-20T05:46:22.419Z,6.31
2017-12-20T05:47:22.416Z,6.31
2017-12-20T05:48:23.374Z,6.30
2017-12-20T05:49:22.402Z,6.31
2017-12-20T05:50:22.394Z,6.22
2017-12-20T05:51:22.405Z,6.31
2017-12-20T05:52:22.507Z,6.28
2017-12-20T05:53:23.101Z,6.26
2017-12-20T05:54:23.239Z,6.30
2017-12-20T05:55:23.256Z,6.31
2017-12-20T05:56:22.748Z,6.30
2017-12-20T05:57:24.022Z,6.26
2017-12-20T05:58:23.758Z,6.28
2017-12-20T05:59:22.753Z,6.35
2017-12-20T06:00:22.663Z,6.31
2017-12-20T06:01:22.653Z,6.30
2017-12-20T06:02:22.327Z,6.30
2017-12-20T06:03:22.318Z,6.31
2017-12-20T06:04:22.313Z,6.31
2017-12-20T06:05:22.312Z,6.22
2017-12-20T06:06:22.301Z,6.20
2017-12-20T06:07:22.298Z,6.26
2017-12-20T06:08:22.291Z,6.19
2017-12-20T06:09:22.283Z,6.24
2017-12-20T06:10:22.277Z,6.27
2017-12-20T06:11:22.278Z,6.28
2017-12-20T06:12:22.268Z,6.28
2017-12-20T06:13:22.260Z,6.24
2017-12-20T06:14:22.253Z,6.31
2017-12-20T06:15:22.250Z,6.31
2017-12-20T06:16:22.244Z,6.35
2017-12-20T06:17:22.238Z,6.39
2017-12-20T06:18:22.231Z,6.35
2017-12-20T06:19:22.224Z,6.31
2017-12-20T06:20:22.217Z,6.35
2017-12-20T06:21:22.214Z,6.33
2017-12-20T06:22:22.207Z,6.35
2017-12-20T06:23:22.199Z,6.35
2017-12-20T06:24:22.197Z,6.30
2017-12-20T06:25:22.192Z,6.35
2017-12-20T06:26:22.183Z,6.27
2017-12-20T06:27:22.176Z,6.26
2017-12-20T06:28:22.172Z,6.30
2017-12-20T06:29:22.165Z,6.26
2017-12-20T06:30:22.161Z,6.28
2017-12-20T06:31:22.174Z,6.27
2017-12-20T06:32:22.233Z,6.26
2017-12-20T06:33:22.141Z,6.26
2017-12-20T06:34:22.140Z,6.26
2017-12-20T06:35:22.129Z,6.26
2017-12-20T06:36:22.713Z,6.17
2017-12-20T06:37:22.119Z,6.16
2017-12-20T06:38:22.113Z,6.22
2017-12-20T06:39:22.102Z,6.19
2017-12-20T06:40:22.098Z,6.28
2017-12-20T06:41:22.095Z,6.26
2017-12-20T06:42:22.089Z,6.22
2017-12-20T06:43:22.081Z,6.24
2017-12-20T06:44:22.076Z,6.19
2017-12-20T06:45:22.071Z,6.20
2017-12-20T06:46:22.066Z,6.22
2017-12-20T06:47:22.058Z,6.17
2017-12-20T06:48:22.051Z,6.22
2017-12-20T06:49:22.044Z,6.24
2017-12-20T06:50:22.039Z,6.22
2017-12-20T06:51:22.048Z,6.22
2017-12-20T06:52:22.028Z,6.28
2017-12-20T06:53:22.021Z,6.22
2017-12-20T06:54:22.015Z,6.20
2017-12-20T06:55:22.009Z,6.24
2017-12-20T06:56:22.001Z,6.17
2017-12-20T06:57:21.996Z,6.28
2017-12-20T06:58:21.991Z,6.30
2017-12-20T06:59:21.984Z,6.28
2017-12-20T07:00:21.985Z,6.31
2017-12-20T07:01:21.987Z,6.31
2017-12-20T07:02:21.966Z,6.31
2017-12-20T07:03:22.094Z,6.31
2017-12-20T07:04:21.956Z,6.31
2017-12-20T07:05:22.138Z,6.28
2017-12-20T07:06:21.972Z,6.27
2017-12-20T07:07:22.012Z,6.31
2017-12-20T07:08:21.936Z,6.30
2017-12-20T07:09:21.927Z,6.22
2017-12-20T07:10:21.926Z,6.31
2017-12-20T07:11:21.963Z,6.28
2017-12-20T07:12:21.906Z,6.33
2017-12-20T07:13:21.900Z,6.26
2017-12-20T07:14:21.906Z,6.26
2017-12-20T07:15:21.890Z,6.20
2017-12-20T07:16:21.895Z,6.28
2017-12-20T07:17:21.878Z,6.28
2017-12-20T07:18:21.869Z,6.26
2017-12-20T07:19:21.865Z,6.24
2017-12-20T07:20:21.861Z,6.17
2017-12-20T07:21:21.852Z,6.27
2017-12-20T07:22:21.847Z,6.19
2017-12-20T07:23:21.840Z,6.22
2017-12-20T07:24:21.843Z,6.22
2017-12-20T07:25:21.831Z,6.19
2017-12-20T07:26:21.858Z,6.22
2017-12-20T07:27:21.819Z,6.30
2017-12-20T07:28:21.813Z,6.20
2017-12-20T07:29:21.805Z,6.28
2017-12-20T07:30:21.796Z,6.14
2017-12-20T07:31:21.791Z,6.24
2017-12-20T07:32:21.814Z,6.17
2017-12-20T07:33:21.780Z,6.20
2017-12-20T07:34:21.821Z,6.26
2017-12-20T07:35:21.769Z,6.30
2017-12-20T07:36:21.761Z,6.30
2017-12-20T07:37:21.777Z,6.33
2017-12-20T07:38:21.750Z,6.24
2017-12-20T07:39:21.745Z,6.31
2017-12-20T07:40:21.740Z,6.31
2017-12-20T07:41:21.730Z,6.38
2017-12-20T07:42:21.726Z,6.33
2017-12-20T07:43:21.720Z,6.28
2017-12-20T07:44:21.716Z,6.27
2017-12-20T07:45:21.710Z,6.33
2017-12-20T07:46:21.701Z,6.35
2017-12-20T07:47:21.697Z,6.28
2017-12-20T07:48:21.693Z,6.38
2017-12-20T07:49:21.685Z,6.31
2017-12-20T07:50:21.677Z,6.46
2017-12-20T07:51:21.673Z,6.49
2017-12-20T07:52:21.668Z,6.44
2017-12-20T07:53:21.661Z,6.42
2017-12-20T07:54:21.843Z,6.49
2017-12-20T07:55:21.650Z,6.51
2017-12-20T07:56:21.647Z,6.45
2017-12-20T07:57:21.638Z,6.49
2017-12-20T07:58:21.632Z,6.46
2017-12-20T07:59:21.657Z,6.44
2017-12-20T08:00:21.625Z,6.44
2017-12-20T08:01:21.616Z,6.46
2017-12-20T08:02:21.609Z,6.36
2017-12-20T08:03:21.603Z,6.38
2017-12-20T08:04:21.611Z,6.45
2017-12-20T08:05:21.597Z,6.41
2017-12-20T08:06:21.592Z,6.39
2017-12-20T08:07:21.578Z,6.46
2017-12-20T08:08:21.574Z,6.46
2017-12-20T08:09:21.570Z,6.51
2017-12-20T08:10:21.562Z,6.36
2017-12-20T08:11:21.793Z,6.38
2017-12-20T08:12:21.552Z,6.51
2017-12-20T08:13:21.549Z,6.45
2017-12-20T08:14:21.537Z,6.44
2017-12-20T08:15:21.532Z,6.52
2017-12-20T08:16:21.529Z,6.52
2017-12-20T08:17:21.521Z,6.52
2017-12-20T08:18:21.545Z,6.63
2017-12-20T08:19:21.509Z,6.60
2017-12-20T08:20:21.503Z,6.56
2017-12-20T08:21:21.499Z,6.62
2017-12-20T08:22:21.493Z,6.62
2017-12-20T08:23:21.487Z,6.59
2017-12-20T08:24:21.480Z,6.57
2017-12-20T08:25:21.475Z,6.64
2017-12-20T08:26:21.468Z,6.62
2017-12-20T08:27:21.496Z,6.59
2017-12-20T08:28:21.456Z,6.62
2017-12-20T08:29:21.454Z,6.56
2017-12-20T08:30:21.447Z,6.59
2017-12-20T08:31:21.448Z,6.54
2017-12-20T08:32:21.436Z,6.62
2017-12-20T08:33:21.661Z,6.54
2017-12-20T08:34:21.424Z,6.62
2017-12-20T08:35:21.418Z,6.63
2017-12-20T08:36:21.413Z,6.63
2017-12-20T08:37:21.405Z,6.63
2017-12-20T08:38:21.412Z,6.63
2017-12-20T08:39:21.399Z,6.59
2017-12-20T08:40:21.388Z,6.63
2017-12-20T08:41:21.387Z,6.63
2017-12-20T08:42:21.375Z,6.62
2017-12-20T08:43:21.390Z,6.63
2017-12-20T08:44:21.364Z,6.59
2017-12-20T08:45:21.359Z,6.56
2017-12-20T08:46:21.353Z,6.57
2017-12-20T08:47:21.348Z,6.62
2017-12-20T08:48:21.342Z,6.64
2017-12-20T08:49:21.464Z,6.54
2017-12-20T08:50:21.329Z,6.57
2017-12-20T08:51:21.325Z,6.62
2017-12-20T08:52:21.320Z,6.59
2017-12-20T08:53:21.329Z,6.52
2017-12-20T08:54:21.305Z,6.62
2017-12-20T08:55:21.304Z,6.57
2017-12-20T08:56:21.297Z,6.62
2017-12-20T08:57:21.292Z,6.64
2017-12-20T08:58:21.284Z,6.62
2017-12-20T08:59:21.277Z,6.64
2017-12-20T09:00:21.273Z,6.54
2017-12-20T09:01:21.267Z,6.62
2017-12-20T09:02:21.260Z,6.72
2017-12-20T09:03:21.255Z,6.56
2017-12-20T09:04:21.249Z,6.59
2017-12-20T09:05:21.244Z,6.56
2017-12-20T09:06:21.235Z,6.63
2017-12-20T09:07:21.231Z,6.63
2017-12-20T09:08:21.231Z,6.72
2017-12-20T09:09:21.221Z,6.67
2017-12-20T09:10:21.219Z,6.70
2017-12-20T09:11:21.209Z,6.78
2017-12-20T09:12:21.208Z,6.89
2017-12-20T09:13:21.199Z,6.84
2017-12-20T09:14:21.193Z,6.87
2017-12-20T09:15:21.185Z,6.88
2017-12-20T09:16:21.182Z,6.88
2017-12-20T09:17:21.175Z,6.89
2017-12-20T09:18:21.169Z,6.88
2017-12-20T09:19:21.168Z,6.88
2017-12-20T09:20:21.157Z,6.93
2017-12-20T09:21:21.153Z,6.96
2017-12-20T09:22:21.145Z,6.95
2017-12-20T09:23:21.140Z,6.97
2017-12-20T09:24:21.134Z,7.03
2017-12-20T09:25:21.172Z,7.03
2017-12-20T09:26:21.134Z,6.97
2017-12-20T09:27:21.119Z,7.00
2017-12-20T09:28:21.112Z,6.97
2017-12-20T09:29:21.111Z,7.05
2017-12-20T09:30:21.103Z,6.99
2017-12-20T09:31:21.098Z,7.03
2017-12-20T09:32:21.092Z,6.96
2017-12-20T09:33:21.086Z,7.00
2017-12-20T09:34:21.080Z,7.02
2017-12-20T09:35:21.081Z,7.02
2017-12-20T09:36:21.069Z,7.02
2017-12-20T09:37:21.069Z,7.07
2017-12-20T09:38:21.060Z,7.03
2017-12-20T09:39:21.052Z,7.05
2017-12-20T09:40:21.064Z,7.03
2017-12-20T09:41:21.045Z,7.14
2017-12-20T09:42:21.038Z,7.05
2017-12-20T09:43:21.029Z,7.03
2017-12-20T09:44:21.026Z,7.03
2017-12-20T09:45:21.023Z,7.15
2017-12-20T09:46:21.016Z,7.15
2017-12-20T09:47:21.036Z,7.00
2017-12-20T09:48:21.016Z,7.10
2017-12-20T09:49:21.002Z,7.02
2017-12-20T09:50:20.992Z,7.18
2017-12-20T09:51:20.987Z,7.18
2017-12-20T09:52:20.987Z,7.18
2017-12-20T09:53:20.989Z,7.18
2017-12-20T09:54:20.973Z,7.13
2017-12-20T09:55:20.986Z,7.03
2017-12-20T09:56:20.961Z,7.10
2017-12-20T09:57:20.956Z,7.10
2017-12-20T09:58:20.952Z,7.06
2017-12-20T09:59:20.948Z,7.03
2017-12-20T10:00:20.956Z,7.06
2017-12-20T10:01:20.939Z,6.99
2017-12-20T10:02:20.928Z,6.99
2017-12-20T10:03:20.926Z,6.97
2017-12-20T10:04:20.919Z,7.00
2017-12-20T10:05:20.915Z,7.05
2017-12-20T10:06:20.920Z,7.11
2017-12-20T10:07:20.904Z,7.11
2017-12-20T10:08:20.898Z,7.10
2017-12-20T10:09:20.892Z,7.18
2017-12-20T10:10:20.886Z,7.18
2017-12-20T10:11:20.880Z,7.21
2017-12-20T10:12:20.878Z,7.23
2017-12-20T10:13:20.869Z,7.20
2017-12-20T10:14:20.864Z,7.14
2017-12-20T10:15:20.858Z,7.17
2017-12-20T10:16:20.856Z,7.20
2017-12-20T10:17:20.851Z,7.15
2017-12-20T10:18:20.844Z,7.15
2017-12-20T10:19:20.838Z,7.29
2017-12-20T10:20:20.853Z,7.35
2017-12-20T10:21:20.831Z,7.29
2017-12-20T10:22:20.831Z,7.31
2017-12-20T10:23:20.825Z,7.32
2017-12-20T10:24:20.811Z,7.38
2017-12-20T10:25:20.808Z,7.36
2017-12-20T10:26:20.810Z,7.32
2017-12-20T10:27:20.801Z,7.39
2017-12-20T10:28:20.820Z,7.33
2017-12-20T10:29:21.724Z,7.39
2017-12-20T10:30:20.780Z,7.36
2017-12-20T10:31:20.776Z,7.35
2017-12-20T10:32:20.823Z,7.43
2017-12-20T10:33:20.806Z,7.36
2017-12-20T10:34:20.779Z,7.39
2017-12-20T10:35:20.762Z,7.39
2017-12-20T10:36:20.752Z,7.39
2017-12-20T10:37:20.744Z,7.51
2017-12-20T10:38:20.740Z,7.43
2017-12-20T10:39:20.733Z,7.50
2017-12-20T10:40:20.734Z,7.45
2017-12-20T10:41:20.758Z,7.40
2017-12-20T10:42:20.729Z,7.42
2017-12-20T10:43:20.740Z,7.50
2017-12-20T10:44:20.733Z,7.51
2017-12-20T10:45:20.718Z,7.51
2017-12-20T10:46:20.699Z,7.40
2017-12-20T10:47:20.692Z,7.48
2017-12-20T10:48:20.693Z,7.48
2017-12-20T10:49:20.686Z,7.45
2017-12-20T10:50:20.676Z,7.48
2017-12-20T10:51:20.673Z,7.48
2017-12-20T10:52:20.668Z,7.56
2017-12-20T10:53:20.662Z,7.57
2017-12-20T10:54:20.660Z,7.56
2017-12-20T10:55:20.652Z,7.56
2017-12-20T10:56:20.649Z,7.57
2017-12-20T10:57:20.838Z,7.58
2017-12-20T10:58:20.644Z,7.56
2017-12-20T10:59:20.632Z,7.57
2017-12-20T11:00:20.629Z,7.56
2017-12-20T11:01:20.628Z,7.66
2017-12-20T11:02:20.619Z,7.61
2017-12-20T11:03:20.616Z,7.69
2017-12-20T11:04:20.611Z,7.76
2017-12-20T11:05:20.605Z,7.73
2017-12-20T11:06:20.671Z,7.77
2017-12-20T11:07:20.596Z,7.70
2017-12-20T11:08:20.589Z,7.76
2017-12-20T11:09:20.585Z,7.82
2017-12-20T11:10:20.579Z,7.66
2017-12-20T11:11:20.581Z,7.69
2017-12-20T11:12:20.652Z,7.61
2017-12-20T11:13:20.674Z,7.69
2017-12-20T11:14:20.589Z,7.77
2017-12-20T11:15:20.557Z,7.77
2017-12-20T11:16:20.603Z,7.69
2017-12-20T11:17:20.610Z,7.73
2017-12-20T11:18:20.599Z,7.70
2017-12-20T11:19:20.647Z,7.69
2017-12-20T11:20:20.564Z,7.73
2017-12-20T11:21:20.615Z,7.73
2017-12-20T11:22:20.538Z,7.73
2017-12-20T11:23:20.617Z,7.67
2017-12-20T11:24:20.511Z,7.58
2017-12-20T11:25:20.511Z,7.69
2017-12-20T11:26:20.503Z,7.63
2017-12-20T11:27:20.499Z,7.63
2017-12-20T11:28:20.491Z,7.60
2017-12-20T11:29:20.488Z,7.69
2017-12-20T11:30:20.483Z,7.67
2017-12-20T11:31:20.481Z,7.58
2017-12-20T11:32:20.477Z,7.58
2017-12-20T11:33:20.469Z,7.57
2017-12-20T11:34:20.464Z,7.58
2017-12-20T11:35:20.458Z,7.67
2017-12-20T11:36:20.466Z,7.56
2017-12-20T11:37:20.448Z,7.54
2017-12-20T11:38:20.447Z,7.67
2017-12-20T11:39:20.436Z,7.67
2017-12-20T11:40:20.434Z,7.67
2017-12-20T11:41:20.429Z,7.69
2017-12-20T11:42:20.421Z,7.73
2017-12-20T11:43:20.419Z,7.72
2017-12-20T11:44:20.413Z,7.58
2017-12-20T11:45:20.416Z,7.63
2017-12-20T11:46:20.404Z,7.69
2017-12-20T11:47:20.399Z,7.63
2017-12-20T11:48:20.393Z,7.70
2017-12-20T11:49:20.390Z,7.72
2017-12-20T11:50:20.384Z,7.70
2017-12-20T11:51:20.380Z,7.67
2017-12-20T11:52:20.376Z,7.69
2017-12-20T11:53:20.370Z,7.77
2017-12-20T11:54:20.365Z,7.75
2017-12-20T11:55:20.365Z,7.73
2017-12-20T11:56:20.355Z,7.75
2017-12-20T11:57:20.388Z,7.82
2017-12-20T11:58:20.350Z,7.80
2017-12-20T11:59:20.338Z,7.90
2017-12-20T12:00:20.332Z,7.82
2017-12-20T12:01:20.331Z,7.91
2017-12-20T12:02:20.330Z,7.79
2017-12-20T12:03:20.326Z,7.77
2017-12-20T12:04:20.314Z,7.82
2017-12-20T12:05:20.310Z,7.85
2017-12-20T12:06:20.305Z,7.85
2017-12-20T12:07:20.302Z,7.83
2017-12-20T12:08:20.299Z,7.70
2017-12-20T12:09:20.292Z,7.87
2017-12-20T12:10:20.289Z,7.69
2017-12-20T12:11:20.283Z,7.72
2017-12-20T12:12:20.277Z,7.80
2017-12-20T12:13:20.273Z,7.73
2017-12-20T12:14:20.269Z,7.77
2017-12-20T12:15:20.265Z,7.82
2017-12-20T12:16:20.261Z,7.93
2017-12-20T12:17:20.291Z,7.82
2017-12-20T12:18:20.254Z,7.90
2017-12-20T12:19:20.249Z,7.91
2017-12-20T12:20:20.241Z,7.90
2017-12-20T12:21:20.241Z,7.93
2017-12-20T12:22:20.227Z,7.97
2017-12-20T12:23:20.229Z,8.06
2017-12-20T12:24:20.220Z,7.98
2017-12-20T12:25:20.216Z,8.05
2017-12-20T12:26:20.208Z,8.01
2017-12-20T12:27:20.209Z,8.08
2017-12-20T12:28:20.202Z,8.08
2017-12-20T12:29:20.199Z,8.08
2017-12-20T12:30:20.192Z,8.08
2017-12-20T12:31:20.189Z,8.06
2017-12-20T12:32:20.181Z,8.08
2017-12-20T12:33:20.178Z,8.06
2017-12-20T12:34:20.180Z,8.18
2017-12-20T12:35:20.168Z,8.12
2017-12-20T12:36:20.163Z,8.18
2017-12-20T12:37:20.160Z,8.06
2017-12-20T12:38:20.153Z,8.09
2017-12-20T12:39:20.147Z,8.06
2017-12-20T12:40:20.146Z,8.05
2017-12-20T12:41:20.140Z,8.12
2017-12-20T12:42:20.136Z,8.09
2017-12-20T12:43:20.139Z,8.13
2017-12-20T12:44:20.130Z,8.05
2017-12-20T12:45:20.123Z,8.05
2017-12-20T12:46:20.128Z,8.05
2017-12-20T12:47:20.114Z,8.01
2017-12-20T12:48:20.109Z,8.00
2017-12-20T12:49:20.103Z,8.06
2017-12-20T12:50:20.099Z,8.05
2017-12-20T12:51:20.095Z,8.10
2017-12-20T12:52:20.092Z,8.10
2017-12-20T12:53:20.088Z,8.12
2017-12-20T12:54:20.081Z,8.09
2017-12-20T12:55:20.081Z,8.08
2017-12-20T12:56:20.072Z,8.06
2017-12-20T12:57:20.071Z,8.05
2017-12-20T12:58:20.063Z,8.06
2017-12-20T12:59:20.058Z,8.05
2017-12-20T13:00:20.051Z,8.06
2017-12-20T13:01:20.048Z,8.03
2017-12-20T13:02:20.044Z,8.05
2017-12-20T13:03:20.041Z,8.01
2017-12-20T13:04:20.035Z,8.03
2017-12-20T13:05:20.030Z,7.97
2017-12-20T13:06:20.024Z,8.01
2017-12-20T13:07:20.020Z,7.95
2017-12-20T13:08:20.017Z,7.94
2017-12-20T13:09:20.015Z,8.01
2017-12-20T13:10:20.201Z,8.00
2017-12-20T13:11:20.021Z,8.09
2017-12-20T13:12:19.996Z,8.03
2017-12-20T13:13:19.992Z,8.01
2017-12-20T13:14:20.006Z,8.05
2017-12-20T13:15:19.985Z,8.00
2017-12-20T13:16:19.985Z,8.00
2017-12-20T13:17:19.979Z,7.98
2017-12-20T13:18:19.969Z,8.06